Time;durP1;ratioP1;P1;durP2;ratioP2;P2;SDS_P1;SDS_P2;PMS_P1;PMS_P2;Temp;Humidity;BMP_temperature;BMP_pressure;BME280_temperature;BME280_humidity;BME280_pressure;Samples;Min_cycle;Max_cycle;Signal;HPM_P1;HPM_P2
2022/05/03 00:02:08;;;;;;;3.47;2.30;;;;;;;7.10;82.09;100382.72;5058020;28;20027;-75
2022/05/03 00:05:00;;;;;;;4.15;2.55;;;;;;;7.14;80.47;100376.47;5057269;28;20485;-75
2022/05/03 00:07:51;;;;;;;5.13;2.30;;;;;;;7.08;81.58;100377.44;5075543;28;20521;-76
2022/05/03 00:10:23;;;;;;;3.40;2.45;;;;;;;7.01;81.29;100376.63;5075037;28;20046;-75
2022/05/03 00:12:55;;;;;;;5.20;2.60;;;;;;;6.91;82.59;100380.31;5075193;28;20024;-75
2022/05/03 00:15:22;;;;;;;5.57;2.83;;;;;;;6.89;82.62;100374.16;5056597;28;20060;-75
2022/05/03 00:17:48;;;;;;;4.05;2.63;;;;;;;6.74;83.92;100375.22;5074733;28;20052;-75
2022/05/03 00:20:14;;;;;;;4.60;2.65;;;;;;;6.81;83.82;100367.19;5075037;28;20032;-75
2022/05/03 00:22:40;;;;;;;7.53;2.80;;;;;;;6.61;85.01;100371.84;5074773;28;20025;-76
2022/05/03 00:25:06;;;;;;;4.93;2.70;;;;;;;6.40;87.78;100371.22;5074696;28;20055;-75
2022/05/03 00:27:32;;;;;;;5.00;2.45;;;;;;;6.39;87.68;100366.81;5074785;28;20355;-77
2022/05/03 00:29:58;;;;;;;7.15;2.60;;;;;;;6.53;86.76;100367.53;5056657;28;20028;-75
2022/05/03 00:32:26;;;;;;;5.75;2.63;;;;;;;6.45;85.87;100358.78;5074824;28;20021;-75
2022/05/03 00:34:52;;;;;;;4.30;2.70;;;;;;;6.45;86.03;100356.13;5056534;28;20031;-75
2022/05/03 00:37:18;;;;;;;5.47;2.75;;;;;;;6.50;85.18;100358.72;5074670;28;20051;-75
2022/05/03 00:39:43;;;;;;;4.20;2.60;;;;;;;6.38;85.48;100355.31;5074563;28;20013;-75
2022/05/03 00:42:17;;;;;;;6.55;2.85;;;;;;;6.32;86.02;100358.91;5056487;28;20538;-75
2022/05/03 00:45:10;;;;;;;4.68;2.92;;;;;;;6.16;88.09;100363.50;5074456;28;20043;-75
2022/05/03 00:47:45;;;;;;;4.45;2.80;;;;;;;6.10;89.10;100361.81;5074219;28;20026;-76
2022/05/03 00:53:01;;;;;;;5.00;2.58;;;;;;;6.25;87.44;100357.22;5074924;22;20064;-85
2022/05/03 00:56:04;;;;;;;4.13;2.75;;;;;;;6.21;88.50;100364.34;5036561;28;20028;-85
2022/05/03 00:58:59;;;;;;;5.35;3.17;;;;;;;6.00;90.82;100354.81;5054726;28;20021;-85
2022/05/03 01:01:48;;;;;;;4.85;3.00;;;;;;;5.77;93.40;100354.13;5054235;28;20029;-85
2022/05/03 01:04:24;;;;;;;5.13;3.05;;;;;;;5.74;95.01;100348.88;5036357;28;20473;-85
2022/05/03 01:07:27;;;;;;;4.95;3.10;;;;;;;5.85;93.72;100358.50;5055302;28;20253;-85
2022/05/03 01:10:01;;;;;;;4.25;2.97;;;;;;;5.84;93.64;100354.97;5054122;28;20029;-85
2022/05/03 01:12:48;;;;;;;4.30;2.72;;;;;;;5.87;94.08;100352.28;5054136;28;20025;-85
2022/05/03 01:15:18;;;;;;;5.30;2.90;;;;;;;5.89;93.82;100353.16;5054748;28;20505;-85
2022/05/03 01:17:51;;;;;;;4.95;2.85;;;;;;;5.96;93.48;100355.72;5054023;28;20509;-85
2022/05/03 01:20:33;;;;;;;4.13;2.65;;;;;;;5.92;93.12;100353.13;5054245;28;20029;-84
2022/05/03 01:23:35;;;;;;;4.95;3.05;;;;;;;5.89;93.56;100345.19;5054628;28;20029;-84
2022/05/03 01:26:37;;;;;;;6.32;3.08;;;;;;;5.88;94.80;100359.31;5035529;28;20028;-84
2022/05/03 01:29:13;;;;;;;5.70;2.90;;;;;;;5.91;94.73;100351.34;5054170;28;20035;-84
2022/05/03 01:31:39;;;;;;;6.03;3.10;;;;;;;5.83;94.80;100350.53;5054482;28;20021;-84
2022/05/03 01:34:06;;;;;;;5.28;2.92;;;;;;;5.83;96.14;100353.19;5054871;28;20099;-85
2022/05/03 01:36:59;;;;;;;4.55;3.28;;;;;;;5.70;94.56;100355.94;5054869;28;20028;-85
2022/05/03 01:39:43;;;;;;;4.53;3.00;;;;;;;5.45;96.07;100357.94;5054757;28;20025;-84
2022/05/03 01:42:15;;;;;;;5.53;2.95;;;;;;;5.63;94.73;100353.38;5054501;28;20027;-85
2022/05/03 01:45:07;;;;;;;3.97;2.78;;;;;;;5.67;95.98;100348.03;5019681;28;20064;-85
2022/05/03 01:47:44;;;;;;;4.63;2.90;;;;;;;5.72;96.37;100347.13;5054501;28;20021;-84
2022/05/03 01:50:22;;;;;;;5.20;3.20;;;;;;;5.61;95.25;100344.56;5054466;28;20029;-85
2022/05/03 01:53:15;;;;;;;6.70;3.38;;;;;;;5.66;95.27;100343.63;5053895;28;20040;-85
2022/05/03 01:56:02;;;;;;;5.28;3.08;;;;;;;5.61;94.29;100345.44;5054276;28;20498;-85
2022/05/03 01:58:35;;;;;;;4.60;2.58;;;;;;;5.56;93.75;100339.31;5055273;28;20052;-84
2022/05/03 02:01:03;;;;;;;5.60;2.97;;;;;;;5.63;93.51;100337.47;5055478;28;20037;-84
2022/05/03 02:03:34;;;;;;;5.95;3.10;;;;;;;5.61;94.54;100341.91;5038976;28;20032;-85
2022/05/03 02:06:08;;;;;;;4.88;3.08;;;;;;;5.63;94.87;100338.34;5057515;28;20021;-85
2022/05/03 02:08:56;;;;;;;4.53;2.60;;;;;;;5.56;94.75;100339.31;5057196;28;20075;-85
2022/05/03 02:11:37;;;;;;;5.07;3.17;;;;;;;5.59;94.29;100339.28;5039315;28;20025;-85
2022/05/03 02:17:05;;;;;;;4.70;2.93;;;;;;;5.47;94.30;100343.78;5057443;28;20040;-85
2022/05/03 02:19:56;;;;;;;4.00;2.75;;;;;;;5.52;94.84;100337.56;5061723;28;20040;-85
2022/05/03 02:22:30;;;;;;;4.97;2.65;;;;;;;5.46;95.56;100338.50;5055593;28;20025;-85
2022/05/03 02:25:23;;;;;;;5.95;2.90;;;;;;;5.46;95.24;100335.84;5055119;28;20032;-85
2022/05/03 02:28:45;;;;;;;5.45;2.85;;;;;;;5.50;95.16;100334.03;5054311;28;20512;-85
2022/05/03 02:31:18;;;;;;;5.82;2.90;;;;;;;5.43;95.13;100341.16;4974208;28;20041;-85
2022/05/03 02:33:48;;;;;;;6.22;2.95;;;;;;;5.36;94.99;100332.41;5034597;28;20037;-85
2022/05/03 02:36:16;;;;;;;4.85;3.00;;;;;;;5.36;94.77;100329.75;5053397;28;20436;-85
2022/05/03 02:38:51;;;;;;;4.72;2.97;;;;;;;5.39;95.36;100326.19;5056591;28;20370;-85
2022/05/03 02:41:19;;;;;;;5.88;3.28;;;;;;;5.33;94.29;100328.00;5039690;28;20036;-84
2022/05/03 02:43:46;;;;;;;4.68;3.05;;;;;;;5.21;94.40;100330.72;5039559;28;20455;-85
2022/05/03 02:46:28;;;;;;;5.15;3.20;;;;;;;5.25;96.23;100333.38;5057254;28;20025;-85
2022/05/03 02:48:58;;;;;;;5.78;2.78;;;;;;;5.07;95.15;100337.00;5057446;28;20071;-85
2022/05/03 02:51:29;;;;;;;7.25;2.65;;;;;;;5.01;94.89;100332.63;5057392;28;20036;-85
2022/05/03 02:54:05;;;;;;;5.32;2.80;;;;;;;4.94;94.66;100320.34;5039086;28;20095;-85
2022/05/03 02:56:51;;;;;;;4.68;2.80;;;;;;;5.06;95.32;100329.94;5039429;28;20033;-84
2022/05/03 03:02:52;;;;;;;4.63;2.93;;;;;;;5.05;96.31;100322.03;5057297;28;20108;-85
2022/05/03 03:05:21;;;;;;;6.35;3.10;;;;;;;5.02;96.53;100318.53;5056848;28;20341;-84
2022/05/03 03:07:57;;;;;;;5.15;3.00;;;;;;;5.03;96.08;100309.66;5039066;28;20036;-84
2022/05/03 03:10:30;;;;;;;3.95;2.67;;;;;;;5.04;97.17;100310.56;5038743;28;20032;-85
2022/05/03 03:13:05;;;;;;;4.72;2.88;;;;;;;5.02;96.29;100318.53;5056816;28;20071;-85
2022/05/03 03:15:38;;;;;;;3.75;2.60;;;;;;;4.99;96.03;100307.94;5057076;28;20032;-84
2022/05/03 03:18:11;;;;;;;4.32;2.90;;;;;;;4.97;95.92;100312.38;5056850;28;20394;-84
2022/05/03 03:20:43;;;;;;;5.85;2.90;;;;;;;4.94;97.06;100320.34;5057349;28;20382;-84
2022/05/03 03:23:18;;;;;;;4.05;2.67;;;;;;;4.93;97.25;100307.97;5057019;28;20044;-87
2022/05/03 03:25:46;;;;;;;4.60;3.17;;;;;;;4.92;97.79;100307.09;5038720;28;20036;-86
2022/05/03 03:28:14;;;;;;;5.97;3.00;;;;;;;4.93;98.02;100302.69;5056861;28;20518;-86
2022/05/03 03:30:41;;;;;;;6.07;2.90;;;;;;;4.97;98.52;100309.72;5038619;28;20029;-84
2022/05/03 03:33:10;;;;;;;5.15;2.97;;;;;;;4.92;98.36;100312.38;5056054;28;20033;-86
2022/05/03 03:35:37;;;;;;;6.07;3.40;;;;;;;4.76;97.36;100310.72;5055916;28;20028;-85
2022/05/03 03:38:05;;;;;;;6.03;3.33;;;;;;;4.77;96.92;100307.19;5055921;28;20100;-85
2022/05/03 03:40:30;;;;;;;3.83;2.53;;;;;;;4.67;95.50;100307.22;5055661;28;20053;-85
2022/05/03 03:42:56;;;;;;;5.13;3.05;;;;;;;4.69;95.33;100310.75;5055694;28;20063;-85
2022/05/03 03:45:21;;;;;;;8.52;3.47;;;;;;;4.58;97.50;100318.75;5055679;28;20067;-85
2022/05/03 03:47:47;;;;;;;7.13;3.25;;;;;;;4.55;99.13;100316.13;5038037;28;20032;-84
2022/05/03 03:50:14;;;;;;;6.68;3.30;;;;;;;4.61;98.61;100309.03;5054842;28;20028;-85
2022/05/03 03:52:42;;;;;;;4.85;2.95;;;;;;;4.70;97.42;100311.63;5056016;28;20032;-85
2022/05/03 03:55:09;;;;;;;6.50;3.75;;;;;;;4.73;98.45;100306.34;5055282;28;20033;-85
2022/05/03 03:57:36;;;;;;;5.35;3.22;;;;;;;4.75;98.31;100304.56;5055481;28;20092;-85
2022/05/03 04:00:04;;;;;;;6.40;3.40;;;;;;;4.77;97.80;100310.72;5055508;28;20068;-84
2022/05/03 04:02:30;;;;;;;5.97;2.95;;;;;;;4.50;98.64;100320.56;5037573;28;20031;-85
2022/05/03 04:04:57;;;;;;;7.53;3.47;;;;;;;4.43;99.01;100311.75;5037940;28;20116;-85
2022/05/03 04:07:22;;;;;;;6.03;3.00;;;;;;;4.32;97.31;100311.81;5055729;28;20466;-85
2022/05/03 04:09:48;;;;;;;5.93;3.00;;;;;;;4.34;97.43;100311.78;5055628;28;20027;-85
2022/05/03 04:12:13;;;;;;;6.07;2.60;;;;;;;4.35;98.57;100318.84;5055114;28;20031;-85
2022/05/03 04:14:40;;;;;;;6.70;3.40;;;;;;;4.30;97.94;100321.53;5037092;28;20474;-86
2022/05/03 04:17:05;;;;;;;5.93;3.33;;;;;;;4.19;99.85;100325.94;5055057;28;20095;-86
2022/05/03 04:19:30;;;;;;;6.00;3.40;;;;;;;4.17;99.76;100322.44;5055426;28;20028;-85
2022/05/03 04:22:12;;;;;;;6.05;3.30;;;;;;;4.10;100.00;100326.84;5037452;28;20373;-84
2022/05/03 04:24:37;;;;;;;6.78;3.90;;;;;;;4.06;100.00;100319.81;5055698;28;20025;-84
2022/05/03 04:27:03;;;;;;;7.53;3.80;;;;;;;4.09;100.00;100320.69;5055856;28;20444;-85
2022/05/03 04:29:28;;;;;;;7.20;3.50;;;;;;;4.11;100.00;100321.56;5055295;28;20017;-84
2022/05/03 04:31:53;;;;;;;6.60;3.75;;;;;;;4.10;100.00;100329.47;5055207;28;20043;-85
2022/05/03 04:34:19;;;;;;;5.55;3.15;;;;;;;4.10;100.00;100322.44;5055029;28;20028;-85
2022/05/03 04:36:44;;;;;;;6.53;3.50;;;;;;;4.18;100.00;100316.25;5055355;28;20033;-85
2022/05/03 04:39:09;;;;;;;5.15;3.40;;;;;;;4.24;100.00;100318.88;5055081;28;20017;-85
2022/05/03 04:41:35;;;;;;;9.80;3.70;;;;;;;4.32;100.00;100325.03;5054628;28;20029;-84
2022/05/03 04:44:00;;;;;;;7.60;3.80;;;;;;;4.28;100.00;100325.06;5054974;28;20036;-85
2022/05/03 04:46:25;;;;;;;7.93;3.75;;;;;;;4.27;100.00;100324.16;5055489;28;20451;-85
2022/05/03 04:48:51;;;;;;;5.65;3.58;;;;;;;4.33;100.00;100332.06;5036836;28;20021;-86
2022/05/03 04:51:24;;;;;;;7.05;3.42;;;;;;;4.36;100.00;100339.97;5054330;28;20406;-85
2022/05/03 04:53:50;;;;;;;5.50;2.95;;;;;;;4.40;100.00;100339.97;5036731;28;20186;-85
2022/05/03 04:56:17;;;;;;;5.22;3.10;;;;;;;4.41;100.00;100331.16;5036435;28;20025;-84
2022/05/03 04:58:42;;;;;;;7.05;3.50;;;;;;;4.45;99.67;100322.34;5054306;28;20508;-86
2022/05/03 05:01:11;;;;;;;6.60;3.28;;;;;;;4.47;100.00;100332.03;5053407;28;20025;-85
2022/05/03 05:03:37;;;;;;;9.95;3.70;;;;;;;4.49;100.00;100334.66;5054755;28;20102;-85
2022/05/03 05:06:02;;;;;;;6.82;3.65;;;;;;;4.43;100.00;100332.03;5055106;28;20020;-85
2022/05/03 05:08:27;;;;;;;6.65;3.30;;;;;;;4.51;100.00;100338.16;5055302;28;20025;-85
2022/05/03 05:10:53;;;;;;;5.47;3.60;;;;;;;4.49;100.00;100339.03;5036242;28;20025;-86
2022/05/03 05:13:18;;;;;;;5.85;3.15;;;;;;;4.52;100.00;100339.03;5055939;28;20021;-83
2022/05/03 05:15:43;;;;;;;5.72;2.95;;;;;;;4.62;97.82;100343.41;5055072;28;20377;-84
2022/05/03 05:18:08;;;;;;;6.45;3.13;;;;;;;4.67;98.75;100344.28;5054621;28;20028;-84
2022/05/03 05:20:34;;;;;;;5.93;3.20;;;;;;;4.71;100.00;100350.44;5054883;28;20028;-84
2022/05/03 05:22:59;;;;;;;6.82;3.78;;;;;;;4.74;100.00;100345.09;5054038;28;20402;-84
2022/05/03 05:25:25;;;;;;;7.25;3.42;;;;;;;4.68;100.00;100350.44;5053796;28;20081;-84
2022/05/03 05:27:50;;;;;;;7.55;3.35;;;;;;;4.64;100.00;100346.91;5036196;28;20029;-86
2022/05/03 05:30:15;;;;;;;6.47;3.78;;;;;;;4.68;100.00;100353.09;5037161;28;20017;-83
2022/05/03 05:32:41;;;;;;;6.53;4.20;;;;;;;4.74;100.00;100355.69;5035989;28;20031;-83
2022/05/03 05:35:06;;;;;;;7.60;3.70;;;;;;;4.80;100.00;100366.25;5036479;28;20107;-84
2022/05/03 05:37:32;;;;;;;9.65;4.28;;;;;;;4.87;100.00;100366.25;5036039;28;20023;-84
2022/05/03 05:39:58;;;;;;;9.32;4.20;;;;;;;4.95;100.00;100372.34;5036461;28;20486;-84
2022/05/03 05:42:23;;;;;;;7.97;3.90;;;;;;;5.02;100.00;100366.16;5054372;28;20027;-83
2022/05/03 05:44:48;;;;;;;10.27;4.05;;;;;;;5.10;100.00;100368.72;5054662;28;20083;-84
2022/05/03 05:47:14;;;;;;;5.43;3.67;;;;;;;5.11;100.00;100369.63;5054023;28;20021;-85
2022/05/03 05:49:40;;;;;;;8.30;3.88;;;;;;;5.16;100.00;100378.41;5054141;28;20025;-83
2022/05/03 05:54:49;;;;;;;;;;;;;;;5.34;100.00;100376.53;5055039;28;20087;-85
2022/05/03 05:57:15;;;;;;;7.03;3.90;;;;;;;5.41;100.00;100377.38;5035991;28;19909;-83
2022/05/03 05:59:40;;;;;;;7.28;3.45;;;;;;;5.50;99.29;100379.97;5053789;28;20277;-84
2022/05/03 06:02:06;;;;;;;6.05;3.63;;;;;;;5.53;99.89;100379.06;5035754;28;20032;-84
2022/05/03 06:04:33;;;;;;;6.78;3.78;;;;;;;5.60;98.24;100372.81;5035537;28;20023;-83
2022/05/03 06:06:58;;;;;;;4.45;3.08;;;;;;;5.73;95.72;100383.31;5053418;28;20094;-84
2022/05/03 06:09:24;;;;;;;5.90;3.10;;;;;;;5.90;95.94;100383.19;5053443;28;20466;-84
2022/05/03 06:11:49;;;;;;;5.90;3.47;;;;;;;5.97;100.00;100389.28;5053425;28;20023;-85
2022/05/03 06:14:15;;;;;;;5.47;3.55;;;;;;;5.93;99.78;100386.66;5053475;28;20452;-84
2022/05/03 06:16:51;;;;;;;7.07;4.18;;;;;;;5.95;100.00;100388.44;5053363;28;20035;-84
2022/05/03 06:19:16;;;;;;;7.65;4.40;;;;;;;6.00;100.00;100392.81;5035316;28;20478;-83
2022/05/03 06:21:42;;;;;;;6.05;4.22;;;;;;;6.19;100.00;100389.09;5053117;28;20029;-84
2022/05/03 06:24:07;;;;;;;8.48;4.13;;;;;;;6.20;100.00;100393.53;5053145;28;20491;-84
2022/05/03 06:26:34;;;;;;;6.60;3.33;;;;;;;6.26;98.78;100388.16;5053567;28;20036;-84
2022/05/03 06:29:00;;;;;;;8.65;4.10;;;;;;;6.40;99.82;100395.06;5053180;28;20029;-83
2022/05/03 06:31:25;;;;;;;5.50;2.78;;;;;;;6.42;94.80;100387.97;5052987;28;20021;-84
2022/05/03 06:33:50;;;;;;;4.25;2.63;;;;;;;6.53;89.75;100402.00;5034935;28;20037;-84
2022/05/03 06:36:17;;;;;;;5.90;3.20;;;;;;;6.65;92.04;100390.38;5053545;28;20068;-84
2022/05/03 06:38:42;;;;;;;4.35;2.83;;;;;;;6.79;91.28;100397.28;5052713;28;20025;-84
2022/05/03 06:41:08;;;;;;;3.50;2.50;;;;;;;6.86;89.57;100398.97;5052972;28;20427;-84
2022/05/03 06:43:34;;;;;;;4.30;2.65;;;;;;;6.99;90.27;100399.69;5052952;28;20029;-84
2022/05/03 06:45:59;;;;;;;4.85;2.65;;;;;;;7.11;87.39;100408.41;5052921;28;20020;-84
2022/05/03 06:48:25;;;;;;;9.05;2.95;;;;;;;7.20;88.13;100397.63;5052771;28;20028;-84
2022/05/03 06:53:23;;;;;;;5.82;2.50;;;;;;;7.48;89.68;100404.31;5072482;22;20056;-85
2022/05/03 06:55:48;;;;;;;3.95;2.00;;;;;;;7.45;82.92;100402.56;5052958;28;20025;-86
2022/05/03 06:58:14;;;;;;;4.25;2.17;;;;;;;7.62;82.17;100408.53;5034519;28;20025;-85
2022/05/03 07:00:39;;;;;;;6.53;1.98;;;;;;;7.63;80.34;100416.47;5052689;28;20086;-85
2022/05/03 07:03:05;;;;;;;4.25;2.03;;;;;;;7.75;81.31;100415.44;5052787;28;20107;-86
2022/05/03 07:05:31;;;;;;;2.97;1.50;;;;;;;7.79;74.87;100421.56;5036010;28;20355;-84
2022/05/03 07:07:57;;;;;;;3.13;1.73;;;;;;;7.83;74.67;100413.50;5034995;28;20029;-85
2022/05/03 07:10:22;;;;;;;3.30;1.60;;;;;;;7.89;74.86;100411.63;5034897;28;20095;-84
2022/05/03 07:12:47;;;;;;;3.00;1.80;;;;;;;7.86;74.69;100406.41;5034669;28;20063;-84
2022/05/03 07:15:12;;;;;;;4.00;1.80;;;;;;;8.09;75.37;100408.63;5034571;28;20087;-85
2022/05/03 07:23:06;;;;;;;;;;;;;;;8.33;78.04;100419.75;5053371;28;20552;-85
2022/05/03 07:25:32;;;;;;;4.20;2.05;;;;;;;8.41;78.68;100424.91;5037057;28;19913;-85
2022/05/03 07:27:58;;;;;;;3.25;2.15;;;;;;;8.46;77.11;100420.38;5037893;28;20080;-85
2022/05/03 07:30:23;;;;;;;4.88;1.80;;;;;;;8.54;77.09;100422.03;5037858;28;20021;-84
2022/05/03 07:32:48;;;;;;;4.53;1.80;;;;;;;8.58;70.03;100418.41;5038560;28;20462;-85
2022/05/03 07:35:14;;;;;;;3.13;1.27;;;;;;;8.66;66.17;100418.28;5037747;28;20048;-85
2022/05/03 07:37:40;;;;;;;1.10;0.68;;;;;;;8.87;60.12;100422.28;5056192;28;20025;-82
2022/05/03 07:40:07;;;;;;;2.55;0.82;;;;;;;9.01;59.57;100422.00;5055833;28;20093;-85
2022/05/03 07:42:32;;;;;;;2.10;1.10;;;;;;;9.08;62.60;100428.06;5038046;28;20115;-85
2022/05/03 07:44:58;;;;;;;2.60;0.90;;;;;;;9.14;61.51;100429.72;5055798;28;20150;-85
2022/05/03 07:47:24;;;;;;;1.75;1.08;;;;;;;9.26;63.84;100433.91;5038755;28;20387;-84
2022/05/03 07:49:49;;;;;;;2.75;1.05;;;;;;;9.32;64.58;100439.09;5038292;28;20017;-84
2022/05/03 07:52:15;;;;;;;2.50;1.40;;;;;;;9.39;65.95;100442.50;5055621;28;20163;-85
2022/05/03 07:54:44;;;;;;;2.97;1.08;;;;;;;9.41;60.58;100437.13;5038758;28;20025;-85
2022/05/03 07:57:10;;;;;;;2.80;1.38;;;;;;;9.56;60.21;100446.59;5038062;28;20017;-85
2022/05/03 07:59:35;;;;;;;3.83;1.52;;;;;;;9.53;62.29;100446.66;5038057;28;20021;-85
2022/05/03 08:02:01;;;;;;;2.30;1.40;;;;;;;9.64;61.16;100447.25;5037804;28;20029;-87
2022/05/03 08:04:26;;;;;;;3.00;1.50;;;;;;;9.78;61.14;100446.06;5038770;28;20096;-84
2022/05/03 08:06:52;;;;;;;2.78;1.30;;;;;;;9.82;61.54;100448.59;5037693;28;20469;-85
2022/05/03 08:09:18;;;;;;;2.63;1.38;;;;;;;9.84;58.44;100445.91;5037568;28;20118;-84
2022/05/03 08:11:43;;;;;;;2.15;1.30;;;;;;;9.93;61.53;100450.13;5037366;28;20036;-86
2022/05/03 08:14:09;;;;;;;3.58;1.60;;;;;;;9.96;58.85;100450.06;5037410;28;20393;-85
2022/05/03 08:16:35;;;;;;;3.67;1.58;;;;;;;9.92;59.88;100451.91;5037596;28;20485;-85
2022/05/03 08:19:00;;;;;;;3.17;1.83;;;;;;;10.05;60.36;100456.97;5038188;28;20021;-86
2022/05/03 08:21:26;;;;;;;5.20;2.20;;;;;;;10.09;61.84;100455.97;5056238;28;20021;-86
2022/05/03 08:23:52;;;;;;;3.72;2.00;;;;;;;10.20;60.67;100452.16;5037221;28;20024;-85
2022/05/03 08:26:17;;;;;;;4.45;3.00;;;;;;;10.38;63.52;100457.03;5037331;28;20029;-85
2022/05/03 08:28:42;;;;;;;4.13;2.70;;;;;;;10.41;62.65;100455.19;5037633;28;20026;-86
2022/05/03 08:31:09;;;;;;;4.70;2.15;;;;;;;10.44;61.83;100455.94;5055218;28;20071;-86
2022/05/03 08:33:35;;;;;;;4.13;2.25;;;;;;;10.45;63.19;100464.84;5037629;28;20378;-87
2022/05/03 08:36:00;;;;;;;4.45;3.05;;;;;;;10.53;64.46;100454.88;5055094;28;20466;-86
2022/05/03 08:43:58;;;;;;;6.40;2.95;;;;;;;10.98;67.38;100458.06;5055308;28;20035;-86
2022/05/03 08:46:23;;;;;;;5.53;2.90;;;;;;;11.35;69.62;100453.44;5055514;28;20021;-86
2022/05/03 08:48:53;;;;;;;5.82;3.20;;;;;;;11.49;67.76;100455.66;5036870;28;20017;-85
2022/05/03 08:51:21;;;;;;;6.47;3.00;;;;;;;11.50;66.22;100456.53;5036460;28;20501;-86
2022/05/03 08:53:47;;;;;;;6.60;3.45;;;;;;;11.59;66.59;100460.75;5036612;28;20071;-84
2022/05/03 08:56:12;;;;;;;6.50;3.50;;;;;;;11.67;65.74;100458.72;5036804;28;20021;-87
2022/05/03 08:58:39;;;;;;;4.90;3.08;;;;;;;11.82;67.04;100461.81;5054884;28;20029;-86
2022/05/03 09:01:04;;;;;;;5.78;3.67;;;;;;;11.84;65.90;100454.59;5037290;28;20029;-86
2022/05/03 09:03:30;;;;;;;5.82;3.60;;;;;;;11.96;66.28;100454.19;5036624;28;20132;-86
2022/05/03 09:05:56;;;;;;;8.43;3.63;;;;;;;12.01;66.11;100453.19;5036593;28;20021;-86
2022/05/03 09:08:23;;;;;;;5.38;3.50;;;;;;;12.20;66.16;100453.44;5054845;28;20025;-86
2022/05/03 09:10:49;;;;;;;5.28;3.58;;;;;;;12.35;65.40;100454.72;5055377;28;20394;-84
2022/05/03 09:13:20;;;;;;;6.18;3.65;;;;;;;12.39;65.03;100456.38;5054694;28;20020;-86
2022/05/03 09:15:48;;;;;;;6.93;4.10;;;;;;;12.50;66.57;100464.00;5054563;28;20025;-86
2022/05/03 09:18:28;;;;;;;7.22;4.05;;;;;;;12.57;64.89;100458.44;5036608;28;20393;-87
2022/05/03 09:23:48;;;;;;;6.47;4.15;;;;;;;12.77;65.30;100457.72;5054462;28;20097;-87
2022/05/03 09:26:15;;;;;;;10.48;4.70;;;;;;;13.16;64.38;100466.13;5036271;28;20044;-87
2022/05/03 09:29:11;;;;;;;8.32;4.78;;;;;;;13.29;62.78;100462.06;5036004;28;20040;-86
2022/05/03 09:31:41;;;;;;;8.18;5.00;;;;;;;12.98;62.44;100460.53;5036652;28;20025;-87
2022/05/03 09:34:18;;;;;;;8.88;5.28;;;;;;;13.14;62.93;100457.28;5036418;28;20048;-86
2022/05/03 09:36:45;;;;;;;7.40;4.65;;;;;;;13.17;63.21;100455.34;5035976;28;20029;-87
2022/05/03 09:39:24;;;;;;;8.27;5.28;;;;;;;13.74;64.94;100456.75;5053825;28;20032;-87
2022/05/03 09:42:10;;;;;;;8.20;5.05;;;;;;;13.60;63.75;100456.44;5054148;28;20025;-86
2022/05/03 09:44:52;;;;;;;10.55;5.68;;;;;;;14.13;62.51;100456.97;5035445;28;20037;-86
2022/05/03 09:47:20;;;;;;;9.00;5.13;;;;;;;14.08;61.48;100464.34;5036314;28;20036;-85
2022/05/03 09:49:45;;;;;;;7.15;4.90;;;;;;;14.03;61.52;100461.84;5035802;28;20067;-86
2022/05/03 09:52:40;;;;;;;7.95;5.07;;;;;;;14.40;60.15;100459.41;5035387;28;20033;-86
2022/05/03 09:55:08;;;;;;;7.47;5.00;;;;;;;14.24;59.49;100461.00;5028362;28;20087;-86
2022/05/03 09:57:35;;;;;;;7.93;4.95;;;;;;;14.83;61.30;100445.00;5035666;28;20539;-83
2022/05/03 10:00:03;;;;;;;7.43;4.88;;;;;;;15.29;62.67;100451.91;5035507;28;20025;-86
2022/05/03 10:02:29;;;;;;;6.43;4.88;;;;;;;15.61;59.51;100451.31;5053593;28;20021;-87
2022/05/03 10:04:57;;;;;;;6.88;4.78;;;;;;;15.51;60.63;100452.69;5036076;28;20025;-86
2022/05/03 10:07:23;;;;;;;7.50;4.93;;;;;;;15.40;57.76;100448.72;5036043;28;20036;-85
2022/05/03 10:09:52;;;;;;;6.80;4.47;;;;;;;15.55;59.52;100445.34;5053495;28;20028;-87
2022/05/03 10:12:19;;;;;;;8.40;5.30;;;;;;;15.73;59.93;100438.19;5035240;28;20021;-86
2022/05/03 10:14:46;;;;;;;7.72;5.13;;;;;;;15.08;56.47;100445.69;5035506;28;20025;-85
2022/05/03 10:20:38;;;;;;;6.50;4.10;;;;;;;16.28;54.93;100432.81;5053388;28;20056;-86
2022/05/03 10:23:04;;;;;;;9.85;5.63;;;;;;;15.62;55.69;100446.78;5036436;28;20417;-85
2022/05/03 10:25:41;;;;;;;9.52;5.35;;;;;;;15.43;55.31;100445.00;5035552;28;20029;-86
2022/05/03 10:28:07;;;;;;;9.50;5.20;;;;;;;16.19;56.64;100440.41;5035374;28;20036;-87
2022/05/03 10:30:34;;;;;;;7.22;4.88;;;;;;;16.44;59.30;100440.94;5035399;28;20025;-86
2022/05/03 10:33:23;;;;;;;7.07;5.30;;;;;;;15.91;53.38;100439.09;5035787;28;20523;-86
2022/05/03 10:35:50;;;;;;;7.32;4.97;;;;;;;15.94;53.72;100438.94;5035281;28;20032;-87
2022/05/03 10:38:35;;;;;;;8.05;4.82;;;;;;;16.21;55.51;100434.06;5035131;28;20025;-86
2022/05/03 10:41:02;;;;;;;9.80;5.13;;;;;;;15.66;53.13;100439.44;5035033;28;20029;-86
2022/05/03 10:43:30;;;;;;;6.75;4.43;;;;;;;16.19;55.85;100431.44;5035101;28;20024;-87
2022/05/03 10:45:58;;;;;;;8.00;5.20;;;;;;;16.84;53.70;100424.47;5035381;28;20367;-87
2022/05/03 10:48:27;;;;;;;6.65;4.60;;;;;;;17.52;56.32;100424.34;5035839;28;20025;-86
2022/05/03 10:50:58;;;;;;;9.02;5.22;;;;;;;17.46;51.32;100430.13;5053140;28;20029;-87
2022/05/03 10:53:26;;;;;;;7.05;4.50;;;;;;;17.96;51.39;100427.25;5052651;28;20112;-86
2022/05/03 10:56:05;;;;;;;7.35;4.72;;;;;;;18.11;48.78;100424.63;5035806;28;20074;-87
2022/05/03 10:58:32;;;;;;;12.00;5.35;;;;;;;17.11;52.36;100425.72;5054521;28;20112;-87
2022/05/03 11:01:20;;;;;;;10.18;5.53;;;;;;;16.42;54.33;100419.47;5039183;28;20404;-89
2022/05/03 11:03:51;;;;;;;8.35;6.35;;;;;;;16.03;54.82;100417.88;5038809;28;20028;-84
2022/05/03 11:06:17;;;;;;;9.30;5.60;;;;;;;16.29;51.72;100413.84;5038827;28;20041;-86
2022/05/03 11:08:57;;;;;;;8.60;5.93;;;;;;;16.31;55.09;100408.41;5056923;28;20025;-85
2022/05/03 11:11:35;;;;;;;9.15;6.10;;;;;;;16.33;52.77;100411.88;5038566;28;20060;-85
2022/05/03 11:14:01;;;;;;;9.13;6.18;;;;;;;16.35;53.26;100407.28;5039250;28;20025;-85
2022/05/03 11:16:27;;;;;;;10.75;6.32;;;;;;;16.82;56.03;100402.13;5038880;28;20078;-86
2022/05/03 11:18:54;;;;;;;10.55;6.00;;;;;;;17.39;54.45;100407.16;5039852;28;20055;-85
2022/05/03 11:21:19;;;;;;;9.52;6.28;;;;;;;16.71;53.75;100401.81;5038977;28;20056;-86
2022/05/03 11:23:50;;;;;;;11.02;6.65;;;;;;;16.82;58.45;100403.94;5038570;28;20048;-85
2022/05/03 11:26:18;;;;;;;10.52;6.63;;;;;;;17.07;53.38;100402.56;5038441;28;20029;-85
2022/05/03 11:28:51;;;;;;;9.63;7.25;;;;;;;16.42;55.25;100403.31;5038380;28;20470;-85
2022/05/03 11:31:20;;;;;;;10.55;6.60;;;;;;;16.39;53.36;100395.38;5056121;28;20103;-85
2022/05/03 11:34:11;;;;;;;11.40;7.38;;;;;;;16.63;54.19;100400.41;5040973;28;20111;-86
2022/05/03 11:36:38;;;;;;;10.50;6.28;;;;;;;16.69;51.93;100401.91;5039037;28;20106;-85
2022/05/03 11:39:03;;;;;;;11.23;6.13;;;;;;;16.82;54.70;100398.53;5056381;28;20103;-84
2022/05/03 11:41:29;;;;;;;9.43;6.05;;;;;;;16.32;50.87;100399.34;5038466;28;20049;-84
2022/05/03 11:43:55;;;;;;;9.73;5.75;;;;;;;16.48;53.14;100398.53;5056285;28;20017;-83
2022/05/03 11:46:22;;;;;;;8.55;6.13;;;;;;;16.19;50.91;100397.31;5039279;28;20382;-83
2022/05/03 11:49:01;;;;;;;8.95;6.10;;;;;;;16.31;52.67;100384.16;5040757;28;20017;-83
2022/05/03 11:57:06;;;;;;;8.70;6.38;;;;;;;17.10;53.51;100380.81;5056521;28;20090;-85
2022/05/03 11:59:32;;;;;;;11.57;7.40;;;;;;;16.60;54.38;100380.81;5056153;28;20025;-84
2022/05/03 12:02:17;;;;;;;11.05;6.95;;;;;;;16.50;53.14;100372.38;5055957;28;20466;-85
2022/05/03 12:05:16;;;;;;;9.40;6.60;;;;;;;16.78;51.98;100376.25;5038033;28;20064;-83
2022/05/03 12:07:41;;;;;;;14.20;7.18;;;;;;;17.50;51.22;100366.03;5038756;28;20028;-83
2022/05/03 12:10:25;;;;;;;12.87;7.37;;;;;;;17.38;51.48;100363.09;5055482;28;20025;-84
2022/05/03 12:13:08;;;;;;;;;;;;;;;17.16;54.21;100368.84;5038323;28;20755;-87
2022/05/03 12:15:46;;;;;;;10.63;7.05;;;;;;;17.48;51.87;100374.22;5037730;28;19908;-87
2022/05/03 12:18:13;;;;;;;12.80;7.75;;;;;;;17.23;52.26;100374.75;5037515;28;20025;-87
2022/05/03 12:20:55;;;;;;;14.57;7.78;;;;;;;16.74;54.23;100369.31;5056067;28;20060;-86
2022/05/03 12:23:26;;;;;;;9.98;7.70;;;;;;;15.98;55.32;100356.16;5037699;28;20627;-82